createdAt,value
2018-06-18T00:00:50.227Z,55.00
2018-06-18T00:03:18.831Z,54.50
2018-06-18T00:05:47.436Z,54.10
2018-06-18T00:08:16.019Z,53.80
2018-06-18T00:10:44.655Z,53.70
2018-06-18T00:13:13.187Z,53.40
2018-06-18T00:15:42.303Z,53.10
2018-06-18T00:18:11.494Z,52.80
2018-06-18T00:20:40.178Z,52.90
2018-06-18T00:23:08.820Z,52.90
2018-06-18T00:25:37.394Z,52.70
2018-06-18T00:28:05.983Z,52.80
2018-06-18T00:30:34.602Z,52.80
2018-06-18T00:33:03.291Z,52.90
2018-06-18T00:35:31.916Z,52.90
2018-06-18T00:38:00.495Z,53.10
2018-06-18T00:40:29.387Z,53.20
2018-06-18T00:42:57.961Z,53.50
2018-06-18T00:45:26.604Z,53.10
2018-06-18T00:47:55.213Z,52.90
2018-06-18T00:50:24.164Z,52.90
2018-06-18T00:52:52.796Z,52.60
2018-06-18T00:55:32.493Z,52.80
2018-06-18T00:58:01.123Z,53.00
2018-06-18T01:00:29.710Z,53.10
2018-06-18T01:02:58.336Z,53.20
2018-06-18T01:05:26.878Z,53.20
2018-06-18T01:07:55.431Z,53.10
2018-06-18T01:10:24.056Z,52.90
2018-06-18T01:12:52.635Z,53.30
2018-06-18T01:15:21.415Z,52.80
2018-06-18T01:17:50.102Z,52.70
2018-06-18T01:20:18.695Z,52.80
2018-06-18T01:22:51.880Z,53.20
2018-06-18T01:25:20.447Z,53.40
2018-06-18T01:27:49.130Z,53.60
2018-06-18T01:30:17.728Z,53.40
2018-06-18T01:32:46.315Z,53.30
2018-06-18T01:35:14.985Z,53.40
2018-06-18T01:37:43.582Z,53.30
2018-06-18T01:40:12.379Z,53.40
2018-06-18T01:42:40.899Z,53.40
2018-06-18T01:45:09.543Z,53.50
2018-06-18T01:47:38.091Z,54.20
2018-06-18T01:50:06.782Z,55.10
2018-06-18T01:52:36.066Z,55.60
2018-06-18T01:55:14.436Z,56.00
2018-06-18T01:57:44.834Z,56.10
2018-06-18T02:00:16.394Z,56.70
2018-06-18T02:02:48.075Z,56.80
2018-06-18T02:05:17.619Z,57.00
2018-06-18T02:07:46.569Z,56.80
2018-06-18T02:10:20.131Z,56.80
2018-06-18T02:12:51.843Z,56.70
2018-06-18T02:15:24.083Z,56.60
2018-06-18T02:17:54.401Z,56.80
2018-06-18T02:20:25.748Z,56.80
2018-06-18T02:22:54.656Z,56.40
2018-06-18T02:25:26.005Z,56.00
2018-06-18T02:28:03.399Z,56.10
2018-06-18T02:30:38.153Z,56.20
2018-06-18T02:33:14.766Z,56.20
2018-06-18T02:35:48.551Z,56.10
2018-06-18T02:38:22.524Z,56.40
2018-06-18T02:40:56.552Z,56.10
2018-06-18T02:43:29.220Z,55.90
2018-06-18T02:46:01.319Z,55.90
2018-06-18T02:48:33.154Z,55.90
2018-06-18T02:51:02.535Z,55.70
2018-06-18T02:53:31.209Z,55.70
2018-06-18T02:56:03.848Z,55.60
2018-06-18T02:58:33.602Z,55.80
2018-06-18T03:01:04.247Z,56.20
2018-06-18T03:03:33.338Z,56.70
2018-06-18T03:06:04.604Z,57.00
2018-06-18T03:08:35.760Z,57.10
2018-06-18T03:11:05.532Z,57.20
2018-06-18T03:13:35.979Z,57.40
2018-06-18T03:16:06.660Z,57.30
2018-06-18T03:18:41.725Z,57.30
2018-06-18T03:23:21.951Z,57.50
2018-06-18T03:25:56.387Z,57.50
2018-06-18T03:28:33.438Z,57.80
2018-06-18T03:31:04.936Z,58.00
2018-06-18T03:33:36.178Z,58.10
2018-06-18T03:36:07.880Z,58.00
2018-06-18T03:38:39.067Z,57.80
2018-06-18T03:41:08.616Z,57.60
2018-06-18T03:43:44.909Z,57.40
2018-06-18T03:46:21.872Z,57.30
2018-06-18T03:48:51.124Z,57.50
2018-06-18T03:51:23.087Z,57.50
2018-06-18T03:56:23.084Z,57.60
2018-06-18T03:58:51.638Z,57.80
2018-06-18T04:02:09.682Z,57.70
2018-06-18T04:04:51.247Z,57.50
2018-06-18T04:07:28.515Z,57.70
2018-06-18T04:10:04.027Z,57.80
2018-06-18T04:12:34.110Z,57.60
2018-06-18T04:15:04.451Z,57.60
2018-06-18T04:17:37.287Z,57.30
2018-06-18T04:20:07.195Z,57.30
2018-06-18T04:22:40.443Z,57.50
2018-06-18T04:25:10.633Z,57.60
2018-06-18T04:27:42.031Z,57.20
2018-06-18T04:30:16.920Z,56.50
2018-06-18T04:32:47.143Z,56.30
2018-06-18T04:35:16.788Z,56.20
2018-06-18T04:37:48.204Z,56.30
2018-06-18T04:40:20.263Z,56.20
2018-06-18T04:42:54.176Z,56.30
2018-06-18T04:45:28.131Z,56.40
2018-06-18T04:48:02.945Z,56.30
2018-06-18T04:50:37.191Z,56.30
2018-06-18T04:53:06.679Z,56.20
2018-06-18T04:55:37.785Z,56.00
2018-06-18T04:58:08.165Z,55.60
2018-06-18T05:00:47.278Z,55.50
2018-06-18T05:03:18.874Z,55.80
2018-06-18T05:05:51.099Z,55.60
2018-06-18T05:09:12.792Z,55.20
2018-06-18T05:11:44.397Z,55.30
2018-06-18T05:14:18.743Z,55.30
2018-06-18T05:16:49.318Z,55.40
2018-06-18T05:19:22.423Z,55.40
2018-06-18T05:21:53.379Z,55.60
2018-06-18T05:24:22.462Z,55.60
2018-06-18T05:26:57.591Z,55.00
2018-06-18T05:29:27.563Z,55.00
2018-06-18T05:31:57.979Z,54.40
2018-06-18T05:34:30.830Z,54.10
2018-06-18T05:37:02.990Z,54.10
2018-06-18T05:39:32.488Z,54.50
2018-06-18T05:42:02.977Z,54.80
2018-06-18T05:44:32.039Z,54.30
2018-06-18T05:47:04.868Z,54.20
2018-06-18T05:49:36.545Z,54.20
2018-06-18T05:52:06.145Z,54.20
2018-06-18T05:54:35.979Z,54.20
2018-06-18T05:57:05.388Z,54.00
2018-06-18T05:59:36.403Z,53.60
2018-06-18T06:02:06.484Z,53.40
2018-06-18T06:04:36.026Z,53.70
2018-06-18T06:07:06.667Z,53.90
2018-06-18T06:09:36.221Z,53.70
2018-06-18T06:12:09.595Z,53.60
2018-06-18T06:14:38.719Z,53.40
2018-06-18T06:17:08.811Z,53.40
2018-06-18T06:19:41.412Z,53.30
2018-06-18T06:22:09.958Z,53.80
2018-06-18T06:24:41.482Z,52.10
2018-06-18T06:27:13.159Z,52.10
2018-06-18T06:29:44.249Z,52.50
2018-06-18T06:32:17.041Z,52.50
2018-06-18T06:34:53.335Z,51.70
2018-06-18T06:37:23.904Z,51.40
2018-06-18T06:39:55.239Z,51.20
2018-06-18T06:42:25.258Z,51.10
2018-06-18T06:44:54.863Z,50.60
2018-06-18T06:47:24.848Z,50.60
2018-06-18T06:49:54.289Z,50.60
2018-06-18T06:52:26.736Z,50.60
2018-06-18T06:54:58.239Z,50.30
2018-06-18T06:57:31.312Z,49.70
2018-06-18T07:00:01.123Z,48.70
2018-06-18T07:02:38.207Z,48.90
2018-06-18T07:05:10.885Z,49.50
2018-06-18T07:07:41.188Z,48.90
2018-06-18T07:10:11.308Z,49.00
2018-06-18T07:12:42.648Z,49.00
2018-06-18T07:15:14.395Z,49.10
2018-06-18T07:17:44.568Z,49.30
2018-06-18T07:22:45.170Z,49.40
2018-06-18T07:25:17.855Z,49.60
2018-06-18T07:27:48.404Z,49.30
2018-06-18T07:30:18.681Z,49.10
2018-06-18T07:32:49.411Z,49.40
2018-06-18T07:35:19.166Z,49.00
2018-06-18T07:37:49.063Z,49.20
2018-06-18T07:40:18.935Z,49.50
2018-06-18T07:42:50.111Z,49.30
2018-06-18T07:45:21.676Z,49.30
2018-06-18T07:47:53.031Z,49.70
2018-06-18T07:50:25.246Z,49.80
2018-06-18T07:52:55.764Z,49.80
2018-06-18T07:55:25.640Z,49.20
2018-06-18T07:57:58.463Z,49.10
2018-06-18T08:00:28.225Z,49.30
2018-06-18T08:02:56.767Z,48.80
2018-06-18T08:05:26.941Z,49.30
2018-06-18T08:07:57.631Z,49.30
2018-06-18T08:13:07.655Z,48.60
2018-06-18T08:15:36.721Z,48.10
2018-06-18T08:18:07.054Z,48.10
2018-06-18T08:20:35.927Z,48.30
2018-06-18T08:23:04.773Z,48.10
2018-06-18T08:25:36.100Z,48.50
2018-06-18T08:28:07.955Z,49.00
2018-06-18T08:30:38.802Z,48.30
2018-06-18T08:33:10.661Z,48.10
2018-06-18T08:35:41.194Z,47.70
2018-06-18T08:38:11.604Z,47.40
2018-06-18T08:40:42.163Z,47.10
2018-06-18T08:43:15.762Z,47.50
2018-06-18T08:45:46.469Z,47.70
2018-06-18T08:48:21.817Z,47.60
2018-06-18T08:50:56.747Z,47.60
2018-06-18T08:53:31.067Z,47.50
2018-06-18T08:56:05.868Z,47.30
2018-06-18T08:58:43.303Z,47.40
2018-06-18T09:01:34.141Z,47.50
2018-06-18T09:04:10.850Z,48.00
2018-06-18T09:06:43.148Z,47.30
2018-06-18T09:09:12.557Z,47.50
2018-06-18T09:11:43.120Z,47.10
2018-06-18T09:14:11.957Z,47.00
2018-06-18T09:16:42.094Z,46.50
2018-06-18T09:19:13.482Z,46.50
2018-06-18T09:21:44.288Z,46.90
2018-06-18T09:24:14.290Z,46.60
2018-06-18T09:26:45.078Z,46.20
2018-06-18T09:29:15.478Z,46.30
2018-06-18T09:31:50.267Z,46.50
2018-06-18T09:34:18.835Z,46.60
2018-06-18T09:36:52.144Z,46.60
2018-06-18T09:39:23.100Z,46.40
2018-06-18T09:41:51.851Z,45.90
2018-06-18T09:44:21.293Z,45.90
2018-06-18T09:46:54.017Z,45.80
2018-06-18T09:49:29.799Z,45.80
2018-06-18T09:52:06.507Z,46.40
2018-06-18T09:54:41.790Z,46.80
2018-06-18T09:57:26.191Z,46.80
2018-06-18T09:59:59.437Z,47.00
2018-06-18T10:02:30.654Z,46.40
2018-06-18T10:05:03.791Z,46.30
2018-06-18T10:07:34.836Z,46.80
2018-06-18T10:10:05.713Z,46.40
2018-06-18T10:12:35.807Z,46.80
2018-06-18T10:15:06.310Z,46.70
2018-06-18T10:17:36.624Z,46.40
2018-06-18T10:20:09.024Z,45.60
2018-06-18T10:22:39.775Z,45.30
2018-06-18T10:25:12.070Z,45.30
2018-06-18T10:27:43.932Z,44.30
2018-06-18T10:30:12.536Z,45.20
2018-06-18T10:32:49.653Z,45.20
2018-06-18T10:35:23.831Z,45.10
2018-06-18T10:37:58.455Z,45.20
2018-06-18T10:40:34.844Z,44.30
2018-06-18T10:43:08.741Z,44.30
2018-06-18T10:45:37.975Z,44.70
2018-06-18T10:48:08.923Z,44.90
2018-06-18T10:50:44.740Z,45.40
2018-06-18T10:53:15.560Z,45.70
2018-06-18T10:55:44.728Z,45.30
2018-06-18T10:58:15.663Z,44.90
2018-06-18T11:00:49.262Z,44.80
2018-06-18T11:03:22.930Z,45.40
2018-06-18T11:06:00.844Z,43.90
2018-06-18T11:08:30.765Z,44.50
2018-06-18T11:10:59.744Z,44.90
2018-06-18T11:13:30.208Z,45.20
2018-06-18T11:15:59.517Z,44.60
2018-06-18T11:18:35.765Z,44.40
2018-06-18T11:21:10.776Z,44.40
2018-06-18T11:23:45.730Z,44.20
2018-06-18T11:26:21.509Z,44.40
2018-06-18T11:28:53.101Z,44.60
2018-06-18T11:31:22.580Z,45.50
2018-06-18T11:33:54.090Z,45.30
2018-06-18T11:36:24.697Z,45.10
2018-06-18T11:38:55.680Z,44.40
2018-06-18T11:41:28.032Z,44.40
2018-06-18T11:43:57.868Z,44.40
2018-06-18T11:46:28.323Z,44.20
2018-06-18T11:48:57.803Z,44.60
2018-06-18T11:51:28.727Z,45.10
2018-06-18T11:53:58.818Z,44.50
2018-06-18T11:56:30.594Z,44.20
2018-06-18T11:59:05.959Z,43.90
2018-06-18T12:01:40.692Z,44.60
2018-06-18T12:04:16.092Z,44.30
2018-06-18T12:06:53.858Z,45.00
2018-06-18T12:11:59.737Z,43.70
2018-06-18T12:14:29.676Z,44.30
2018-06-18T12:16:58.235Z,44.70
2018-06-18T12:19:28.556Z,45.20
2018-06-18T12:21:58.912Z,43.30
2018-06-18T12:24:30.313Z,44.60
2018-06-18T12:26:59.987Z,44.70
2018-06-18T12:29:29.108Z,44.10
2018-06-18T12:32:00.433Z,44.20
2018-06-18T12:34:29.180Z,42.60
2018-06-18T12:36:59.528Z,41.70
2018-06-18T12:39:28.986Z,41.60
2018-06-18T12:42:09.531Z,42.40
2018-06-18T12:49:25.283Z,43.20
2018-06-18T12:52:00.000Z,43.00
2018-06-18T12:54:36.175Z,42.20
2018-06-18T12:57:08.919Z,42.00
2018-06-18T12:59:39.550Z,43.60
2018-06-18T13:02:31.152Z,43.20
2018-06-18T13:05:02.408Z,43.80
2018-06-18T13:07:31.212Z,44.00
2018-06-18T13:10:02.356Z,43.00
2018-06-18T13:12:31.146Z,43.80
2018-06-18T13:15:01.419Z,41.80
2018-06-18T13:17:33.968Z,41.50
2018-06-18T13:20:03.981Z,42.50
2018-06-18T13:22:34.060Z,42.50
2018-06-18T13:25:02.863Z,42.10
2018-06-18T13:27:38.782Z,42.20
2018-06-18T13:30:10.477Z,41.10
2018-06-18T13:32:41.713Z,41.60
2018-06-18T13:35:10.807Z,41.40
2018-06-18T13:37:45.224Z,42.60
2018-06-18T13:40:29.292Z,42.40
2018-06-18T13:43:06.789Z,41.10
2018-06-18T13:45:42.151Z,42.00
2018-06-18T13:48:19.069Z,42.50
2018-06-18T13:50:48.900Z,42.40
2018-06-18T13:53:19.563Z,43.10
2018-06-18T13:55:49.206Z,42.20
2018-06-18T13:58:19.963Z,42.50
2018-06-18T14:00:53.713Z,42.40
2018-06-18T14:03:24.888Z,42.20
2018-06-18T14:08:26.933Z,42.10
2018-06-18T14:10:57.041Z,41.80
2018-06-18T14:13:27.523Z,41.90
2018-06-18T14:15:56.860Z,41.50
2018-06-18T14:18:27.396Z,42.30
2018-06-18T14:21:00.688Z,41.70
2018-06-18T14:23:30.900Z,42.30
2018-06-18T14:26:02.130Z,41.80
2018-06-18T14:28:36.951Z,41.80
2018-06-18T14:31:12.119Z,42.20
2018-06-18T14:33:51.627Z,42.00
2018-06-18T14:36:28.797Z,43.30
2018-06-18T14:39:04.203Z,43.30
2018-06-18T14:41:42.059Z,42.40
2018-06-18T14:44:14.934Z,42.70
2018-06-18T14:46:44.760Z,43.20
2018-06-18T14:49:15.027Z,42.90
2018-06-18T14:51:46.779Z,42.50
2018-06-18T14:54:16.166Z,42.20
2018-06-18T14:56:45.611Z,42.10
2018-06-18T14:59:27.939Z,41.60
2018-06-18T15:01:58.392Z,42.10
2018-06-18T15:04:27.724Z,43.40
2018-06-18T15:06:59.193Z,42.60
2018-06-18T15:12:05.160Z,42.40
2018-06-18T15:14:35.118Z,43.00
2018-06-18T15:17:07.532Z,43.40
2018-06-18T15:19:37.977Z,43.60
2018-06-18T15:22:07.453Z,43.20
2018-06-18T15:24:57.440Z,42.80
2018-06-18T15:27:32.248Z,42.80
2018-06-18T15:30:04.555Z,42.60
2018-06-18T15:32:38.157Z,43.40
2018-06-18T15:35:10.642Z,42.10
2018-06-18T15:37:40.322Z,42.60
2018-06-18T15:40:10.553Z,42.20
2018-06-18T15:42:40.756Z,43.40
2018-06-18T15:45:10.327Z,43.80
2018-06-18T15:47:39.574Z,43.60
2018-06-18T15:50:13.560Z,43.10
2018-06-18T15:52:47.110Z,43.60
2018-06-18T15:55:18.197Z,43.70
2018-06-18T15:57:47.771Z,43.90
2018-06-18T16:00:18.371Z,43.90
2018-06-18T16:02:48.368Z,44.10
2018-06-18T16:05:18.293Z,43.70
2018-06-18T16:07:48.720Z,43.50
2018-06-18T16:10:19.851Z,43.20
2018-06-18T16:12:50.393Z,43.90
2018-06-18T16:15:20.891Z,44.30
2018-06-18T16:17:51.643Z,42.90
2018-06-18T16:20:20.246Z,42.80
2018-06-18T16:22:50.365Z,42.90
2018-06-18T16:25:20.958Z,43.80
2018-06-18T16:27:51.343Z,43.20
2018-06-18T16:30:23.134Z,44.10
2018-06-18T16:35:22.349Z,43.20
2018-06-18T16:37:50.905Z,43.80
2018-06-18T16:40:19.736Z,43.40
2018-06-18T16:42:50.972Z,44.20
2018-06-18T16:45:23.847Z,42.70
2018-06-18T16:50:22.945Z,42.50
2018-06-18T16:52:53.761Z,42.50
2018-06-18T16:55:27.195Z,43.30
2018-06-18T16:57:56.476Z,42.50
2018-06-18T17:00:28.924Z,43.70
2018-06-18T17:03:00.903Z,43.30
2018-06-18T17:05:30.862Z,42.90
2018-06-18T17:08:02.962Z,43.80
2018-06-18T17:10:34.267Z,43.60
2018-06-18T17:13:07.232Z,43.10
2018-06-18T17:15:36.990Z,43.10
2018-06-18T17:18:08.313Z,42.90
2018-06-18T17:20:38.091Z,43.20
2018-06-18T17:23:07.515Z,43.10
2018-06-18T17:25:38.209Z,43.60
2018-06-18T17:28:07.099Z,43.60
2018-06-18T17:30:39.941Z,43.90
2018-06-18T17:33:14.130Z,44.00
2018-06-18T17:35:43.716Z,43.80
2018-06-18T17:38:14.432Z,45.30
2018-06-18T17:40:44.191Z,44.40
2018-06-18T17:43:13.695Z,44.00
2018-06-18T17:45:44.695Z,45.00
2018-06-18T17:48:14.180Z,44.20
2018-06-18T17:50:43.629Z,45.20
2018-06-18T17:53:12.155Z,44.60
2018-06-18T17:55:42.370Z,44.50
2018-06-18T17:58:13.223Z,44.90
2018-06-18T18:03:13.551Z,44.80
2018-06-18T18:05:46.771Z,44.80
2018-06-18T18:08:17.436Z,45.30
2018-06-18T18:10:50.064Z,44.70
2018-06-18T18:13:22.330Z,45.70
2018-06-18T18:15:52.541Z,45.40
2018-06-18T18:18:23.199Z,45.90
2018-06-18T18:20:53.236Z,45.80
2018-06-18T18:23:25.813Z,45.80
2018-06-18T18:25:58.898Z,46.10
2018-06-18T18:28:33.986Z,45.70
2018-06-18T18:31:04.427Z,45.60
2018-06-18T18:33:37.017Z,46.30
2018-06-18T18:36:07.779Z,46.40
2018-06-18T18:38:36.571Z,46.60
2018-06-18T18:41:06.020Z,46.20
2018-06-18T18:43:35.848Z,46.90
2018-06-18T18:46:06.347Z,46.30
2018-06-18T18:48:37.049Z,46.40
2018-06-18T18:51:10.042Z,46.90
2018-06-18T18:53:41.402Z,47.00
2018-06-18T18:56:22.833Z,46.70
2018-06-18T18:59:33.759Z,46.60
2018-06-18T19:02:04.293Z,47.00
2018-06-18T19:04:49.313Z,47.00
2018-06-18T19:07:23.856Z,47.50
2018-06-18T19:09:58.808Z,48.00
2018-06-18T19:12:30.197Z,48.60
2018-06-18T19:14:59.726Z,48.10
2018-06-18T19:17:30.084Z,47.90
2018-06-18T19:20:09.875Z,47.60
2018-06-18T19:22:39.839Z,48.20
2018-06-18T19:25:08.521Z,48.70
2018-06-18T19:27:51.675Z,49.10
2018-06-18T19:30:20.426Z,48.40
2018-06-18T19:32:55.635Z,48.40
2018-06-18T19:35:27.576Z,48.60
2018-06-18T19:38:00.386Z,48.90
2018-06-18T19:40:31.716Z,49.40
2018-06-18T19:43:03.859Z,49.70
2018-06-18T19:45:34.788Z,49.40
2018-06-18T19:48:13.659Z,49.30
2018-06-18T19:50:46.756Z,49.70
2018-06-18T19:53:16.344Z,49.70
2018-06-18T19:55:50.015Z,50.10
2018-06-18T19:58:20.277Z,50.20
2018-06-18T20:00:54.568Z,50.30
2018-06-18T20:03:23.193Z,50.00
2018-06-18T20:08:32.597Z,50.20
2018-06-18T20:11:01.896Z,50.30
2018-06-18T20:13:30.843Z,50.40
2018-06-18T20:16:00.249Z,50.40
2018-06-18T20:18:30.714Z,50.80
2018-06-18T20:21:07.938Z,50.90
2018-06-18T20:23:41.865Z,50.90
2018-06-18T20:26:16.826Z,51.20
2018-06-18T20:28:47.130Z,51.20
2018-06-18T20:31:18.067Z,51.30
2018-06-18T20:33:53.624Z,51.50
2018-06-18T20:36:24.056Z,51.90
2018-06-18T20:38:55.474Z,51.70
2018-06-18T20:41:24.756Z,51.70
2018-06-18T20:44:11.825Z,51.80
2018-06-18T20:46:41.148Z,51.80
2018-06-18T20:49:12.972Z,52.30
2018-06-18T20:51:44.271Z,52.80
2018-06-18T20:54:14.310Z,53.10
2018-06-18T20:56:47.122Z,53.40
2018-06-18T20:59:16.350Z,53.60
2018-06-18T21:01:49.033Z,54.00
2018-06-18T21:04:18.723Z,54.10
2018-06-18T21:06:47.244Z,54.10
2018-06-18T21:09:17.573Z,54.30
2018-06-18T21:11:48.898Z,54.30
2018-06-18T21:14:18.040Z,54.30
2018-06-18T21:16:48.984Z,54.50
2018-06-18T21:19:18.219Z,54.60
2018-06-18T21:21:47.353Z,54.70
2018-06-18T21:24:16.259Z,54.90
2018-06-18T21:26:47.696Z,55.20
2018-06-18T21:29:22.297Z,55.40
2018-06-18T21:31:52.389Z,55.60
2018-06-18T21:34:21.642Z,55.70
2018-06-18T21:36:52.111Z,55.60
2018-06-18T21:39:23.088Z,55.70
2018-06-18T21:41:52.017Z,55.70
2018-06-18T21:44:43.531Z,55.90
2018-06-18T21:47:13.948Z,56.10
2018-06-18T21:49:49.219Z,56.10
2018-06-18T21:52:19.488Z,56.10
2018-06-18T21:54:48.956Z,56.10
2018-06-18T21:57:19.860Z,56.20
2018-06-18T21:59:51.275Z,56.30
2018-06-18T22:02:22.622Z,56.30
2018-06-18T22:04:53.310Z,56.40
2018-06-18T22:07:23.103Z,56.50
2018-06-18T22:09:52.595Z,56.60
2018-06-18T22:12:22.139Z,56.70
2018-06-18T22:17:21.048Z,57.10
2018-06-18T22:19:52.190Z,57.40
2018-06-18T22:24:51.400Z,57.50
2018-06-18T22:27:21.988Z,57.50
2018-06-18T22:29:55.091Z,58.00
2018-06-18T22:32:25.380Z,57.40
2018-06-18T22:34:54.871Z,58.20
2018-06-18T22:37:25.065Z,57.70
2018-06-18T22:39:57.443Z,57.70
2018-06-18T22:42:26.037Z,57.50
2018-06-18T22:44:55.131Z,58.10
2018-06-18T22:47:27.762Z,58.10
2018-06-18T22:50:00.034Z,58.10
2018-06-18T22:52:29.085Z,57.60
2018-06-18T22:54:59.367Z,57.70
2018-06-18T22:57:29.477Z,57.90
2018-06-18T23:00:00.003Z,58.00
2018-06-18T23:02:31.479Z,58.10
2018-06-18T23:05:01.727Z,58.30
2018-06-18T23:10:01.545Z,58.10
2018-06-18T23:12:38.119Z,58.00
2018-06-18T23:15:08.467Z,58.20
2018-06-18T23:17:41.712Z,58.20
2018-06-18T23:20:12.171Z,58.10
2018-06-18T23:22:42.439Z,58.40
2018-06-18T23:25:13.885Z,58.40
2018-06-18T23:27:43.779Z,58.40
2018-06-18T23:30:17.215Z,58.50
2018-06-18T23:32:50.394Z,58.50
2018-06-18T23:35:22.413Z,58.70
2018-06-18T23:37:51.307Z,58.70
2018-06-18T23:40:23.794Z,58.50
2018-06-18T23:42:56.406Z,58.70
2018-06-18T23:45:26.592Z,58.70
2018-06-18T23:47:56.082Z,58.60
2018-06-18T23:50:27.641Z,58.60
2018-06-18T23:52:59.343Z,58.60
2018-06-18T23:55:29.820Z,58.30
2018-06-18T23:57:59.376Z,58.00
